createdAt,value
2023-04-12T00:02:59.688Z,99436.72
2023-04-12T00:08:05.193Z,99433.88
2023-04-12T00:13:07.996Z,99431.78
2023-04-12T00:18:09.600Z,99434.59
2023-04-12T00:23:13.001Z,99415.00
2023-04-12T00:28:16.138Z,99414.13
2023-04-12T00:33:18.461Z,99411.47
2023-04-12T00:38:20.086Z,99397.47
2023-04-12T00:43:21.839Z,99399.13
2023-04-12T00:48:24.826Z,99397.00
2023-04-12T00:53:26.631Z,99388.63
2023-04-12T00:58:28.243Z,99384.13
2023-04-12T01:03:30.960Z,99378.72
2023-04-12T01:09:05.147Z,99379.81
2023-04-12T01:14:31.622Z,99378.50
2023-04-12T01:19:59.055Z,99363.53
2023-04-12T01:25:11.083Z,99373.53
2023-04-12T01:30:15.928Z,99354.38
2023-04-12T01:35:19.401Z,99344.69
2023-04-12T01:40:21.318Z,99338.72
2023-04-12T01:45:22.963Z,99330.53
2023-04-12T01:50:49.971Z,99326.63
2023-04-12T01:55:56.359Z,99314.44
2023-04-12T02:01:00.913Z,99303.03
2023-04-12T02:06:05.049Z,99308.72
2023-04-12T02:11:09.725Z,99304.66
2023-04-12T02:16:13.931Z,99298.13
2023-04-12T02:21:16.088Z,99288.53
2023-04-12T02:26:17.730Z,99282.44
2023-04-12T02:31:19.803Z,99282.09
2023-04-12T02:36:23.702Z,99292.00
2023-04-12T02:41:25.684Z,99281.75
2023-04-12T02:46:28.704Z,99283.06
2023-04-12T02:51:33.161Z,99277.38
2023-04-12T02:56:37.424Z,99278.44
2023-04-12T03:01:53.726Z,99284.63
2023-04-12T03:07:06.709Z,99278.03
2023-04-12T03:12:17.105Z,99267.66
2023-04-12T03:17:43.026Z,99255.41
2023-04-12T03:22:46.200Z,99248.91
2023-04-12T03:27:47.946Z,99235.00
2023-04-12T03:32:53.998Z,99231.03
2023-04-12T03:37:56.514Z,99232.19
2023-04-12T03:43:00.728Z,99213.69
2023-04-12T03:48:05.137Z,99225.09
2023-04-12T03:53:15.744Z,99214.41
2023-04-12T03:58:20.715Z,99215.75
2023-04-12T04:03:27.059Z,99224.31
2023-04-12T04:08:39.973Z,99217.22
2023-04-12T04:13:41.893Z,99198.63
2023-04-12T04:18:47.650Z,99201.00
2023-04-12T04:23:52.800Z,99193.69
2023-04-12T04:28:55.534Z,99192.69
2023-04-12T04:34:05.395Z,99183.81
2023-04-12T04:39:09.303Z,99183.81
2023-04-12T04:44:21.849Z,99190.53
2023-04-12T04:49:29.254Z,99183.28
2023-04-12T04:54:37.544Z,99178.56
2023-04-12T04:59:40.365Z,99185.84
2023-04-12T05:04:51.364Z,99179.72
2023-04-12T05:09:57.149Z,99173.50
2023-04-12T05:15:11.186Z,99179.53
2023-04-12T05:20:14.122Z,99177.28
2023-04-12T05:25:15.819Z,99164.56
2023-04-12T05:30:28.186Z,99160.16
2023-04-12T05:35:31.606Z,99153.59
2023-04-12T05:40:36.504Z,99148.09
2023-04-12T05:45:41.470Z,99143.44
2023-04-12T05:50:53.200Z,99133.16
2023-04-12T05:55:56.439Z,99117.94
2023-04-12T06:00:59.058Z,99115.41
2023-04-12T06:06:03.228Z,99102.28
2023-04-12T06:11:05.604Z,99076.50
2023-04-12T06:16:07.946Z,99068.56
2023-04-12T06:21:10.013Z,99060.31
2023-04-12T06:26:11.766Z,99057.19
2023-04-12T06:31:16.130Z,99046.63
2023-04-12T06:36:18.672Z,99022.66
2023-04-12T06:41:20.407Z,99021.53
2023-04-12T06:46:27.549Z,99003.97
2023-04-12T06:51:29.313Z,99000.88
2023-04-12T06:56:30.949Z,99002.06
2023-04-12T07:01:32.629Z,98982.47
2023-04-12T07:06:34.475Z,98986.34
2023-04-12T07:11:36.212Z,98984.97
2023-04-12T07:16:38.013Z,98971.72
2023-04-12T07:21:39.672Z,98967.38
2023-04-12T07:26:41.278Z,98972.88
2023-04-12T07:31:42.909Z,98960.91
2023-04-12T07:36:45.034Z,98940.25
2023-04-12T07:41:48.366Z,98935.19
2023-04-12T07:46:49.977Z,98919.66
2023-04-12T07:51:51.920Z,98904.03
2023-04-12T07:57:01.142Z,98887.38
2023-04-12T08:02:03.451Z,98872.25
2023-04-12T08:07:05.430Z,98864.22
2023-04-12T08:12:07.362Z,98849.94
2023-04-12T08:17:09.023Z,98854.97
2023-04-12T08:22:13.492Z,98837.56
2023-04-12T08:27:16.570Z,98846.84
2023-04-12T08:32:18.295Z,98839.00
2023-04-12T08:37:19.941Z,98815.66
2023-04-12T08:42:22.384Z,98815.22
2023-04-12T08:47:24.070Z,98814.06
2023-04-12T08:52:25.696Z,98811.06
2023-04-12T08:57:28.380Z,98793.31
2023-04-12T09:02:31.658Z,98788.03
2023-04-12T09:07:33.618Z,98791.06
2023-04-12T09:12:35.512Z,98792.19
2023-04-12T09:17:38.848Z,98791.16
2023-04-12T09:22:44.542Z,98793.00
2023-04-12T09:27:50.879Z,98772.13
2023-04-12T09:32:54.555Z,98748.00
2023-04-12T09:38:08.267Z,98741.56
2023-04-12T09:43:10.709Z,98724.44
2023-04-12T09:48:21.250Z,98731.13
2023-04-12T09:53:22.940Z,98717.59
2023-04-12T09:58:26.735Z,98734.22
2023-04-12T10:03:29.021Z,98716.25
2023-04-12T10:08:31.553Z,98692.66
2023-04-12T10:13:33.850Z,98678.59
2023-04-12T10:18:37.345Z,98680.78
2023-04-12T10:23:39.327Z,98667.47
2023-04-12T10:28:41.155Z,98641.16
2023-04-12T10:33:43.251Z,98654.50
2023-04-12T10:38:48.162Z,98640.06
2023-04-12T10:43:52.645Z,98645.31
2023-04-12T10:48:57.519Z,98625.19
2023-04-12T10:54:08.396Z,98632.75
2023-04-12T10:59:14.210Z,98616.97
2023-04-12T11:04:21.052Z,98603.94
2023-04-12T11:09:37.081Z,98606.44
2023-04-12T11:14:50.498Z,98595.44
2023-04-12T11:20:01.118Z,98585.06
2023-04-12T11:25:03.435Z,98574.28
2023-04-12T11:30:05.944Z,98561.41
2023-04-12T11:35:11.056Z,98553.72
2023-04-12T11:40:14.672Z,98537.25
2023-04-12T11:45:20.265Z,98552.19
2023-04-12T11:50:29.794Z,98524.25
2023-04-12T11:55:31.648Z,98520.41
2023-04-12T12:00:33.302Z,98512.75
2023-04-12T12:05:38.480Z,98504.13
2023-04-12T12:10:55.471Z,98484.03
2023-04-12T12:16:06.893Z,98482.00
2023-04-12T12:21:09.845Z,98473.06
2023-04-12T12:26:24.910Z,98453.28
2023-04-12T12:31:28.470Z,98443.97
2023-04-12T12:36:32.897Z,98434.44
2023-04-12T12:41:35.390Z,98422.44
2023-04-12T12:51:42.625Z,98419.69
2023-04-12T12:56:44.935Z,98409.75
2023-04-12T13:01:46.629Z,98398.97
2023-04-12T13:06:48.299Z,98399.34
2023-04-12T13:11:49.923Z,98402.25
2023-04-12T13:16:51.678Z,98384.72
2023-04-12T13:21:53.458Z,98378.50
2023-04-12T13:26:55.126Z,98364.22
2023-04-12T13:31:56.955Z,98359.38
2023-04-12T13:36:59.152Z,98363.88
2023-04-12T13:42:02.254Z,98368.44
2023-04-12T13:47:04.612Z,98366.16
2023-04-12T13:52:06.377Z,98363.00
2023-04-12T13:57:08.240Z,98367.97
2023-04-12T14:02:10.263Z,98361.31
2023-04-12T14:07:11.932Z,98355.28
2023-04-12T14:12:13.535Z,98368.88
2023-04-12T14:17:15.391Z,98374.50
2023-04-12T14:22:17.105Z,98374.06
2023-04-12T14:27:18.792Z,98362.66
2023-04-12T14:32:20.592Z,98366.38
2023-04-12T14:37:22.649Z,98356.94
2023-04-12T14:42:24.341Z,98383.88
2023-04-12T14:47:26.110Z,98388.47
2023-04-12T14:52:27.783Z,98387.00
2023-04-12T14:57:29.442Z,98374.03
2023-04-12T15:02:31.274Z,98369.09
2023-04-12T15:07:33.149Z,98374.97
2023-04-12T15:12:35.540Z,98367.56
2023-04-12T15:17:37.395Z,98359.69
2023-04-12T15:22:40.342Z,98370.25
2023-04-12T15:27:44.080Z,98365.91
2023-04-12T15:32:47.059Z,98364.03
2023-04-12T15:37:48.703Z,98369.41
2023-04-12T15:42:50.693Z,98355.50
2023-04-12T15:47:54.908Z,98355.91
2023-04-12T15:52:57.914Z,98347.88
2023-04-12T15:57:59.988Z,98335.69
2023-04-12T16:03:01.805Z,98335.25
2023-04-12T16:08:04.211Z,98317.22
2023-04-12T16:13:06.324Z,98323.09
2023-04-12T16:18:08.407Z,98310.75
2023-04-12T16:23:10.052Z,98292.34
2023-04-12T16:28:12.607Z,98292.25
2023-04-12T16:33:14.304Z,98280.81
2023-04-12T16:38:17.677Z,98274.31
2023-04-12T16:43:19.500Z,98249.41
2023-04-12T16:48:22.879Z,98248.38
2023-04-12T16:53:24.733Z,98236.63
2023-04-12T16:58:26.351Z,98222.09
2023-04-12T17:03:28.144Z,98217.16
2023-04-12T17:08:29.922Z,98212.56
2023-04-12T17:13:31.591Z,98208.41
2023-04-12T17:18:34.668Z,98206.28
2023-04-12T17:23:36.781Z,98211.31
2023-04-12T17:28:39.768Z,98209.06
2023-04-12T17:33:41.611Z,98203.47
2023-04-12T17:38:43.243Z,98207.88
2023-04-12T17:43:47.286Z,98214.06
2023-04-12T17:48:48.916Z,98212.41
2023-04-12T17:53:50.766Z,98206.41
2023-04-12T17:58:52.430Z,98210.72
2023-04-12T18:03:54.241Z,98206.00
2023-04-12T18:08:56.181Z,98204.53
2023-04-12T18:13:58.173Z,98197.47
2023-04-12T18:19:04.133Z,98198.34
2023-04-12T18:24:06.306Z,98199.38
2023-04-12T18:29:08.071Z,98203.19
2023-04-12T18:34:09.883Z,98201.97
2023-04-12T18:39:11.735Z,98197.72
2023-04-12T18:44:13.429Z,98203.25
2023-04-12T18:49:15.409Z,98198.53
2023-04-12T18:54:17.609Z,98208.69
2023-04-12T18:59:19.668Z,98207.91
2023-04-12T19:04:21.888Z,98210.59
2023-04-12T19:09:23.587Z,98204.38
2023-04-12T19:14:25.494Z,98200.63
2023-04-12T19:19:27.157Z,98217.78
2023-04-12T19:24:28.790Z,98216.31
2023-04-12T19:29:30.407Z,98210.66
2023-04-12T19:34:32.237Z,98201.81
2023-04-12T19:39:34.225Z,98177.94
2023-04-12T19:44:37.255Z,98157.03
2023-04-12T19:49:40.653Z,98148.53
2023-04-12T19:54:42.321Z,98134.13
2023-04-12T19:59:43.944Z,98134.75
2023-04-12T20:04:45.600Z,98126.25
2023-04-12T20:09:47.233Z,98128.94
2023-04-12T20:14:48.841Z,98164.16
2023-04-12T20:19:50.464Z,98172.38
2023-04-12T20:24:54.133Z,98179.97
2023-04-12T20:29:55.778Z,98185.56
2023-04-12T20:34:58.224Z,98195.91
2023-04-12T20:40:00.249Z,98198.63
2023-04-12T20:45:03.201Z,98215.59
2023-04-12T20:50:05.581Z,98219.53
2023-04-12T20:55:07.518Z,98209.59
2023-04-12T21:00:17.222Z,98198.63
2023-04-12T21:05:18.838Z,98210.63
2023-04-12T21:10:20.492Z,98214.53
2023-04-12T21:15:22.250Z,98198.00
2023-04-12T21:20:24.971Z,98191.16
2023-04-12T21:25:26.573Z,98181.22
2023-04-12T21:30:28.174Z,98198.53
2023-04-12T21:35:30.319Z,98203.69
2023-04-12T21:40:31.981Z,98202.06
2023-04-12T21:45:33.664Z,98198.94
2023-04-12T21:50:35.675Z,98215.50
2023-04-12T21:55:37.353Z,98199.75
2023-04-12T22:00:38.944Z,98202.19
2023-04-12T22:05:41.158Z,98193.28
2023-04-12T22:10:42.819Z,98190.81
2023-04-12T22:15:44.450Z,98208.88
2023-04-12T22:20:46.371Z,98215.31
2023-04-12T22:25:49.583Z,98203.31
2023-04-12T22:30:51.666Z,98196.81
2023-04-12T22:35:53.408Z,98212.75
2023-04-12T22:41:02.107Z,98215.59
2023-04-12T22:46:05.869Z,98217.69
2023-04-12T22:51:08.495Z,98233.09
2023-04-12T22:56:11.263Z,98250.50
2023-04-12T23:01:12.945Z,98239.56
2023-04-12T23:06:14.733Z,98252.81
2023-04-12T23:11:16.511Z,98258.81
2023-04-12T23:16:18.355Z,98259.25
2023-04-12T23:21:19.996Z,98270.22
2023-04-12T23:26:21.904Z,98268.34
2023-04-12T23:31:23.547Z,98269.56
2023-04-12T23:36:26.114Z,98260.91
2023-04-12T23:41:32.095Z,98266.88
2023-04-12T23:46:35.023Z,98269.13
2023-04-12T23:51:37.108Z,98277.88
2023-04-12T23:56:38.718Z,98286.16
